createdAt,value
2017-04-02T00:00:13.259Z,0
2017-04-02T00:01:13.069Z,0
2017-04-02T00:02:13.105Z,0
2017-04-02T00:03:13.149Z,0
2017-04-02T00:04:13.185Z,0
2017-04-02T00:05:13.203Z,0
2017-04-02T00:06:13.247Z,0
2017-04-02T00:07:13.295Z,0
2017-04-02T00:08:13.315Z,0
2017-04-02T00:09:13.336Z,0
2017-04-02T00:10:13.453Z,0
2017-04-02T00:11:13.403Z,0
2017-04-02T00:12:13.449Z,0
2017-04-02T00:13:13.496Z,0
2017-04-02T00:14:13.510Z,0
2017-04-02T00:15:13.543Z,0
2017-04-02T00:16:13.581Z,0
2017-04-02T00:17:13.621Z,0
2017-04-02T00:18:13.652Z,0
2017-04-02T00:19:13.696Z,0
2017-04-02T00:20:13.709Z,0
2017-04-02T00:21:13.752Z,0
2017-04-02T00:22:13.795Z,0
2017-04-02T00:23:13.809Z,0
2017-04-02T00:24:13.855Z,0
2017-04-02T00:25:13.926Z,0
2017-04-02T00:26:13.920Z,0
2017-04-02T00:27:13.965Z,0
2017-04-02T00:28:14.032Z,0
2017-04-02T00:29:14.018Z,0
2017-04-02T00:30:14.057Z,0
2017-04-02T00:31:14.092Z,0
2017-04-02T00:32:14.128Z,0
2017-04-02T00:33:14.164Z,0
2017-04-02T00:34:14.202Z,0
2017-04-02T00:35:14.225Z,0
2017-04-02T00:36:14.265Z,0
2017-04-02T00:37:14.293Z,0
2017-04-02T00:38:14.326Z,0
2017-04-02T00:39:14.364Z,0
2017-04-02T00:40:14.393Z,0
2017-04-02T00:41:14.436Z,0
2017-04-02T00:42:14.455Z,0
2017-04-02T00:43:14.510Z,0
2017-04-02T00:44:14.517Z,0
2017-04-02T00:45:14.563Z,0
2017-04-02T00:46:14.594Z,0
2017-04-02T00:47:14.617Z,0
2017-04-02T00:48:14.669Z,0
2017-04-02T00:49:14.705Z,0
2017-04-02T00:50:14.731Z,0
2017-04-02T00:51:14.763Z,0
2017-04-02T00:52:14.807Z,0
2017-04-02T00:53:14.836Z,0
2017-04-02T00:54:14.860Z,0
2017-04-02T00:55:14.890Z,0
2017-04-02T00:56:14.939Z,0
2017-04-02T00:57:14.969Z,0
2017-04-02T00:58:14.993Z,0
2017-04-02T00:59:15.032Z,0
2017-04-02T01:00:15.073Z,0
2017-04-02T01:01:15.115Z,0
2017-04-02T01:02:15.133Z,0
2017-04-02T01:03:15.168Z,0
2017-04-02T01:04:15.202Z,0
2017-04-02T01:05:15.235Z,0
2017-04-02T01:06:15.270Z,0
2017-04-02T01:07:15.306Z,0
2017-04-02T01:08:15.324Z,0
2017-04-02T01:09:15.369Z,0
2017-04-02T01:10:15.523Z,0
2017-04-02T01:11:15.432Z,0
2017-04-02T01:12:15.488Z,0
2017-04-02T01:13:15.512Z,0
2017-04-02T01:14:15.534Z,0
2017-04-02T01:15:15.721Z,0
2017-04-02T01:16:15.606Z,0
2017-04-02T01:17:15.637Z,0
2017-04-02T01:18:15.669Z,0
2017-04-02T01:19:15.688Z,0
2017-04-02T01:20:15.739Z,0
2017-04-02T01:21:15.767Z,0
2017-04-02T01:22:15.808Z,0
2017-04-02T01:23:15.836Z,0
2017-04-02T01:24:15.866Z,0
2017-04-02T01:25:15.884Z,0
2017-04-02T01:26:15.941Z,0
2017-04-02T01:27:15.972Z,0
2017-04-02T01:28:16.006Z,0
2017-04-02T01:29:16.034Z,0
2017-04-02T01:30:16.068Z,0
2017-04-02T01:31:16.115Z,0
2017-04-02T01:32:16.139Z,0
2017-04-02T01:33:16.159Z,0
2017-04-02T01:34:16.226Z,0
2017-04-02T01:35:16.261Z,0
2017-04-02T01:36:16.270Z,0
2017-04-02T01:37:16.304Z,0
2017-04-02T01:38:16.337Z,0
2017-04-02T01:39:16.386Z,0
2017-04-02T01:40:16.566Z,0
2017-04-02T01:41:16.438Z,0
2017-04-02T01:42:16.513Z,0
2017-04-02T01:43:16.505Z,0
2017-04-02T01:44:16.530Z,0
2017-04-02T01:45:16.815Z,0
2017-04-02T01:46:16.606Z,0
2017-04-02T01:47:16.675Z,0
2017-04-02T01:48:16.669Z,0
2017-04-02T01:49:16.685Z,0
2017-04-02T01:50:16.729Z,0
2017-04-02T01:51:16.772Z,0
2017-04-02T01:52:16.805Z,0
2017-04-02T01:53:16.833Z,0
2017-04-02T01:54:16.864Z,0
2017-04-02T01:55:16.879Z,0
2017-04-02T01:56:16.934Z,0
2017-04-02T01:57:16.971Z,0
2017-04-02T01:58:17.051Z,0
2017-04-02T01:59:17.036Z,0
2017-04-02T02:00:17.227Z,0
2017-04-02T02:01:17.104Z,0
2017-04-02T02:02:17.135Z,0
2017-04-02T02:03:17.180Z,0
2017-04-02T02:04:17.237Z,0
2017-04-02T02:05:17.235Z,0
2017-04-02T02:06:17.264Z,0
2017-04-02T02:07:17.283Z,0
2017-04-02T02:08:17.331Z,0
2017-04-02T02:09:17.367Z,0
2017-04-02T02:10:17.549Z,0
2017-04-02T02:11:17.430Z,0
2017-04-02T02:12:17.479Z,0
2017-04-02T02:13:17.527Z,0
2017-04-02T02:14:17.533Z,0
2017-04-02T02:15:17.530Z,0
2017-04-02T02:16:17.604Z,0
2017-04-02T02:17:17.629Z,0
2017-04-02T02:18:17.647Z,0
2017-04-02T02:19:17.688Z,0
2017-04-02T02:20:17.723Z,0
2017-04-02T02:21:17.779Z,0
2017-04-02T02:22:17.795Z,0
2017-04-02T02:23:17.812Z,0
2017-04-02T02:24:17.849Z,0
2017-04-02T02:25:18.186Z,0
2017-04-02T02:26:17.940Z,0
2017-04-02T02:27:17.955Z,0
2017-04-02T02:28:17.989Z,0
2017-04-02T02:29:18.020Z,0
2017-04-02T02:30:18.048Z,0
2017-04-02T02:31:18.094Z,0
2017-04-02T02:32:18.107Z,0
2017-04-02T02:33:18.149Z,0
2017-04-02T02:34:18.186Z,0
2017-04-02T02:35:18.219Z,0
2017-04-02T02:36:18.253Z,0
2017-04-02T02:37:18.284Z,0
2017-04-02T02:38:18.321Z,0
2017-04-02T02:39:18.348Z,0
2017-04-02T02:40:18.363Z,0
2017-04-02T02:41:18.420Z,0
2017-04-02T02:42:18.445Z,0
2017-04-02T02:43:18.484Z,0
2017-04-02T02:44:18.503Z,0
2017-04-02T02:45:18.546Z,0
2017-04-02T02:46:18.580Z,0
2017-04-02T02:47:18.647Z,0
2017-04-02T02:48:18.636Z,0
2017-04-02T02:49:18.676Z,0
2017-04-02T02:50:18.697Z,0
2017-04-02T02:51:18.744Z,0
2017-04-02T02:52:18.796Z,0
2017-04-02T02:53:18.793Z,0
2017-04-02T02:54:18.824Z,0
2017-04-02T02:55:18.868Z,0
2017-04-02T02:56:18.913Z,0
2017-04-02T02:57:18.935Z,0
2017-04-02T02:58:18.966Z,0
2017-04-02T02:59:19.005Z,0
2017-04-02T03:00:19.060Z,0
2017-04-02T03:01:19.041Z,0
2017-04-02T03:02:19.094Z,0
2017-04-02T03:03:19.132Z,0
2017-04-02T03:04:19.156Z,0
2017-04-02T03:05:19.189Z,0
2017-04-02T03:06:19.224Z,0
2017-04-02T03:07:19.260Z,0
2017-04-02T03:08:19.290Z,0
2017-04-02T03:09:19.333Z,0
2017-04-02T03:10:19.353Z,0
2017-04-02T03:11:19.389Z,0
2017-04-02T03:12:19.427Z,0
2017-04-02T03:13:19.450Z,0
2017-04-02T03:14:19.481Z,0
2017-04-02T03:15:19.562Z,0
2017-04-02T03:16:19.586Z,0
2017-04-02T03:17:19.563Z,0
2017-04-02T03:18:19.612Z,0
2017-04-02T03:19:19.648Z,0
2017-04-02T03:20:19.682Z,0
2017-04-02T03:21:19.708Z,0
2017-04-02T03:22:19.752Z,0
2017-04-02T03:23:19.782Z,0
2017-04-02T03:24:19.808Z,0
2017-04-02T03:25:19.852Z,0
2017-04-02T03:26:19.876Z,0
2017-04-02T03:27:19.918Z,0
2017-04-02T03:28:19.941Z,0
2017-04-02T03:29:19.971Z,0
2017-04-02T03:30:20.004Z,0
2017-04-02T03:31:20.043Z,0
2017-04-02T03:32:20.095Z,0
2017-04-02T03:33:20.101Z,0
2017-04-02T03:34:20.169Z,0
2017-04-02T03:35:20.171Z,0
2017-04-02T03:36:20.202Z,0
2017-04-02T03:37:20.230Z,0
2017-04-02T03:38:20.250Z,0
2017-04-02T03:39:20.277Z,0
2017-04-02T03:40:20.322Z,0
2017-04-02T03:41:20.356Z,0
2017-04-02T03:42:20.383Z,0
2017-04-02T03:43:20.406Z,0
2017-04-02T03:44:20.485Z,0
2017-04-02T03:45:20.481Z,0
2017-04-02T03:46:20.514Z,0
2017-04-02T03:47:20.551Z,0
2017-04-02T03:48:20.587Z,0
2017-04-02T03:49:20.593Z,0
2017-04-02T03:50:20.795Z,0
2017-04-02T03:51:20.684Z,0
2017-04-02T03:52:20.714Z,0
2017-04-02T03:53:20.755Z,0
2017-04-02T03:54:20.751Z,0
2017-04-02T03:55:20.806Z,0
2017-04-02T03:56:20.841Z,0
2017-04-02T03:57:20.858Z,0
2017-04-02T03:58:20.899Z,0
2017-04-02T03:59:20.942Z,0
2017-04-02T04:00:21.212Z,0
2017-04-02T04:01:21.013Z,0
2017-04-02T04:02:21.036Z,0
2017-04-02T04:03:21.075Z,0
2017-04-02T04:04:21.096Z,0
2017-04-02T04:05:21.120Z,0
2017-04-02T04:06:21.164Z,0
2017-04-02T04:07:21.169Z,0
2017-04-02T04:08:21.220Z,4
2017-04-02T04:09:21.253Z,0
2017-04-02T04:10:21.286Z,0
2017-04-02T04:11:21.340Z,4
2017-04-02T04:12:21.352Z,0
2017-04-02T04:13:21.389Z,4
2017-04-02T04:14:21.414Z,4
2017-04-02T04:15:21.456Z,4
2017-04-02T04:16:21.468Z,4
2017-04-02T04:17:21.510Z,4
2017-04-02T04:18:21.548Z,8
2017-04-02T04:19:21.598Z,8
2017-04-02T04:20:21.608Z,12
2017-04-02T04:21:21.646Z,12
2017-04-02T04:22:21.678Z,16
2017-04-02T04:23:21.723Z,16
2017-04-02T04:24:21.723Z,20
2017-04-02T04:25:21.771Z,24
2017-04-02T04:26:21.802Z,28
2017-04-02T04:27:21.838Z,32
2017-04-02T04:28:21.862Z,40
2017-04-02T04:29:21.899Z,44
2017-04-02T04:30:21.910Z,48
2017-04-02T04:31:21.961Z,56
2017-04-02T04:32:21.985Z,60
2017-04-02T04:33:22.010Z,72
2017-04-02T04:34:22.049Z,80
2017-04-02T04:35:22.067Z,88
2017-04-02T04:36:22.113Z,96
2017-04-02T04:37:22.148Z,104
2017-04-02T04:38:22.176Z,116
2017-04-02T04:39:22.217Z,128
2017-04-02T04:40:22.240Z,144
2017-04-02T04:41:22.279Z,156
2017-04-02T04:42:22.296Z,172
2017-04-02T04:43:22.332Z,184
2017-04-02T04:44:22.364Z,200
2017-04-02T04:45:22.400Z,216
2017-04-02T04:46:22.428Z,236
2017-04-02T04:47:22.470Z,252
2017-04-02T04:48:22.502Z,272
2017-04-02T04:49:22.527Z,292
2017-04-02T04:50:22.561Z,312
2017-04-02T04:51:22.592Z,332
2017-04-02T04:52:22.611Z,348
2017-04-02T04:53:22.665Z,372
2017-04-02T04:54:22.694Z,396
2017-04-02T04:55:23.016Z,420
2017-04-02T04:56:22.751Z,440
2017-04-02T04:57:22.789Z,464
2017-04-02T04:58:22.814Z,484
2017-04-02T04:59:22.862Z,504
2017-04-02T05:00:22.982Z,528
2017-04-02T05:01:22.928Z,552
2017-04-02T05:02:22.974Z,584
2017-04-02T05:03:22.967Z,628
2017-04-02T05:04:23.010Z,672
2017-04-02T05:05:23.139Z,716
2017-04-02T05:06:23.074Z,756
2017-04-02T05:07:23.101Z,800
2017-04-02T05:08:23.154Z,844
2017-04-02T05:09:23.175Z,884
2017-04-02T05:10:23.298Z,928
2017-04-02T05:11:23.224Z,972
2017-04-02T05:12:23.263Z,1016
2017-04-02T05:13:23.271Z,1060
2017-04-02T05:14:23.326Z,1104
2017-04-02T05:15:23.362Z,1148
2017-04-02T05:16:23.391Z,1180
2017-04-02T05:17:23.420Z,1216
2017-04-02T05:18:23.457Z,1240
2017-04-02T05:19:23.491Z,1264
2017-04-02T05:20:23.520Z,1300
2017-04-02T05:21:23.548Z,1332
2017-04-02T05:22:23.585Z,1384
2017-04-02T05:23:23.612Z,1468
2017-04-02T05:24:23.640Z,1544
2017-04-02T05:25:23.678Z,1620
2017-04-02T05:26:23.718Z,1684
2017-04-02T05:27:23.746Z,1740
2017-04-02T05:28:23.769Z,1792
2017-04-02T05:29:23.840Z,1856
2017-04-02T05:30:23.869Z,1924
2017-04-02T05:31:23.854Z,1976
2017-04-02T05:32:23.899Z,2024
2017-04-02T05:33:23.908Z,2080
2017-04-02T05:34:23.958Z,2148
2017-04-02T05:35:23.979Z,2208
2017-04-02T05:36:24.031Z,2276
2017-04-02T05:37:24.052Z,2328
2017-04-02T05:38:24.088Z,2380
2017-04-02T05:39:24.123Z,2428
2017-04-02T05:40:24.156Z,2492
2017-04-02T05:41:24.177Z,2572
2017-04-02T05:42:24.219Z,2676
2017-04-02T05:43:24.251Z,2792
2017-04-02T05:44:24.282Z,2936
2017-04-02T05:45:24.328Z,3256
2017-04-02T05:46:24.349Z,3528
2017-04-02T05:47:24.388Z,3688
2017-04-02T05:48:24.406Z,3836
2017-04-02T05:49:24.428Z,3968
2017-04-02T05:50:24.584Z,4068
2017-04-02T05:51:24.514Z,4028
2017-04-02T05:52:24.538Z,4028
2017-04-02T05:53:24.570Z,4104
2017-04-02T05:54:24.600Z,4120
2017-04-02T05:55:25.197Z,4224
2017-04-02T05:56:24.676Z,4164
2017-04-02T05:57:24.735Z,4228
2017-04-02T05:58:24.739Z,3708
2017-04-02T05:59:24.815Z,3644
2017-04-02T06:00:25.139Z,3484
2017-04-02T06:01:24.834Z,3300
2017-04-02T06:02:24.876Z,3092
2017-04-02T06:03:24.903Z,2988
2017-04-02T06:04:24.932Z,3020
2017-04-02T06:05:24.972Z,3172
2017-04-02T06:06:25.002Z,3404
2017-04-02T06:07:25.037Z,4228
2017-04-02T06:08:25.060Z,3256
2017-04-02T06:09:25.078Z,3324
2017-04-02T06:10:25.135Z,3424
2017-04-02T06:11:25.172Z,3536
2017-04-02T06:12:25.189Z,3544
2017-04-02T06:13:25.230Z,3544
2017-04-02T06:14:25.268Z,3596
2017-04-02T06:15:25.845Z,3676
2017-04-02T06:16:25.338Z,3812
2017-04-02T06:17:25.364Z,4100
2017-04-02T06:18:25.417Z,4200
2017-04-02T06:19:25.435Z,4148
2017-04-02T06:20:25.807Z,4236
2017-04-02T06:21:25.508Z,4276
2017-04-02T06:22:25.545Z,4180
2017-04-02T06:23:25.571Z,4308
2017-04-02T06:24:25.602Z,4832
2017-04-02T06:25:25.740Z,6040
2017-04-02T06:26:25.678Z,6040
2017-04-02T06:27:25.698Z,6224
2017-04-02T06:28:25.737Z,6064
2017-04-02T06:29:25.772Z,6396
2017-04-02T06:30:25.957Z,6700
2017-04-02T06:31:25.818Z,6848
2017-04-02T06:32:25.859Z,6752
2017-04-02T06:33:25.915Z,7088
2017-04-02T06:34:25.942Z,7192
2017-04-02T06:35:25.975Z,7320
2017-04-02T06:36:26.021Z,7296
2017-04-02T06:37:26.042Z,7376
2017-04-02T06:38:26.072Z,7492
2017-04-02T06:39:26.125Z,7624
2017-04-02T06:40:26.155Z,7740
2017-04-02T06:41:26.183Z,7808
2017-04-02T06:42:26.223Z,8016
2017-04-02T06:43:26.260Z,8200
2017-04-02T06:44:26.297Z,7672
2017-04-02T06:45:26.324Z,7240
2017-04-02T06:46:26.370Z,6720
2017-04-02T06:47:26.413Z,6088
2017-04-02T06:48:26.443Z,5828
2017-04-02T06:49:26.499Z,5204
2017-04-02T06:50:26.523Z,5256
2017-04-02T06:51:26.571Z,5260
2017-04-02T06:52:26.573Z,5344
2017-04-02T06:53:26.625Z,5568
2017-04-02T06:54:26.657Z,5968
2017-04-02T06:55:26.694Z,6476
2017-04-02T06:56:26.740Z,7052
2017-04-02T06:57:26.759Z,7572
2017-04-02T06:58:26.788Z,8260
2017-04-02T06:59:26.828Z,9916
2017-04-02T07:00:26.898Z,9476
2017-04-02T07:01:26.911Z,8608
2017-04-02T07:02:26.948Z,7656
2017-04-02T07:03:26.983Z,6412
2017-04-02T07:04:27.021Z,5652
2017-04-02T07:05:27.143Z,5360
2017-04-02T07:06:27.084Z,5340
2017-04-02T07:07:27.139Z,5596
2017-04-02T07:08:27.162Z,5696
2017-04-02T07:09:27.201Z,5612
2017-04-02T07:10:27.383Z,5284
2017-04-02T07:11:27.274Z,5044
2017-04-02T07:12:27.335Z,4920
2017-04-02T07:13:27.337Z,4580
2017-04-02T07:14:27.387Z,4168
2017-04-02T07:15:27.447Z,3836
2017-04-02T07:16:27.448Z,3756
2017-04-02T07:17:27.490Z,3660
2017-04-02T07:18:27.525Z,3616
2017-04-02T07:19:27.563Z,3652
2017-04-02T07:20:27.604Z,3972
2017-04-02T07:21:27.626Z,3904
2017-04-02T07:22:27.662Z,3808
2017-04-02T07:23:27.703Z,3852
2017-04-02T07:24:27.746Z,3868
2017-04-02T07:25:27.884Z,3988
2017-04-02T07:26:27.843Z,4132
2017-04-02T07:27:27.850Z,4092
2017-04-02T07:28:27.886Z,4056
2017-04-02T07:29:27.920Z,4080
2017-04-02T07:30:28.066Z,4096
2017-04-02T07:31:27.994Z,4276
2017-04-02T07:32:28.036Z,4568
2017-04-02T07:33:28.069Z,4984
2017-04-02T07:34:28.100Z,5108
2017-04-02T07:35:28.239Z,5200
2017-04-02T07:36:28.168Z,5528
2017-04-02T07:37:28.208Z,5488
2017-04-02T07:38:28.239Z,5552
2017-04-02T07:39:28.266Z,5896
2017-04-02T07:40:28.470Z,6580
2017-04-02T07:41:28.355Z,7240
2017-04-02T07:42:28.371Z,7784
2017-04-02T07:43:28.424Z,8108
2017-04-02T07:44:28.458Z,8752
2017-04-02T07:45:28.502Z,10404
2017-04-02T07:46:28.545Z,9888
2017-04-02T07:47:28.569Z,11360
2017-04-02T07:48:28.597Z,10392
2017-04-02T07:49:28.640Z,11052
2017-04-02T07:50:28.669Z,11148
2017-04-02T07:51:28.713Z,10864
2017-04-02T07:52:28.742Z,11432
2017-04-02T07:53:28.788Z,12032
2017-04-02T07:54:28.817Z,11268
2017-04-02T07:55:28.851Z,10868
2017-04-02T07:56:28.877Z,10924
2017-04-02T07:57:28.939Z,11692
2017-04-02T07:58:28.962Z,11648
2017-04-02T07:59:29.044Z,11948
2017-04-02T08:00:29.064Z,11072
2017-04-02T08:01:29.077Z,11996
2017-04-02T08:02:29.119Z,11444
2017-04-02T08:03:29.188Z,11824
2017-04-02T08:04:29.209Z,12932
2017-04-02T08:05:29.220Z,11280
2017-04-02T08:06:29.276Z,10476
2017-04-02T08:07:29.324Z,9848
2017-04-02T08:08:29.374Z,9556
2017-04-02T08:09:29.383Z,9524
2017-04-02T08:10:29.430Z,8968
2017-04-02T08:11:29.436Z,8648
2017-04-02T08:12:29.498Z,8580
2017-04-02T08:13:29.548Z,8800
2017-04-02T08:14:29.575Z,9388
2017-04-02T08:15:29.623Z,10128
2017-04-02T08:16:29.664Z,13204
2017-04-02T08:17:29.692Z,13684
2017-04-02T08:18:29.743Z,13280
2017-04-02T08:19:29.773Z,14392
2017-04-02T08:20:29.803Z,12948
2017-04-02T08:21:29.846Z,13380
2017-04-02T08:22:29.874Z,11488
2017-04-02T08:23:29.928Z,11212
2017-04-02T08:24:29.951Z,13016
2017-04-02T08:25:29.999Z,12244
2017-04-02T08:26:30.048Z,12588
2017-04-02T08:27:30.073Z,13840
2017-04-02T08:28:30.127Z,14660
2017-04-02T08:29:30.169Z,15212
2017-04-02T08:30:30.210Z,14320
2017-04-02T08:31:30.246Z,12920
2017-04-02T08:32:30.274Z,12976
2017-04-02T08:33:30.324Z,13908
2017-04-02T08:34:30.421Z,16128
2017-04-02T08:35:30.412Z,15552
2017-04-02T08:36:30.421Z,12588
2017-04-02T08:37:30.481Z,12348
2017-04-02T08:38:30.522Z,16480
2017-04-02T08:39:30.566Z,13196
2017-04-02T08:40:30.613Z,16544
2017-04-02T08:41:30.664Z,14200
2017-04-02T08:42:30.700Z,16576
2017-04-02T08:43:30.730Z,15512
2017-04-02T08:44:30.783Z,12924
2017-04-02T08:45:30.822Z,16896
2017-04-02T08:46:30.867Z,17184
2017-04-02T08:47:30.911Z,18336
2017-04-02T08:48:30.910Z,14976
2017-04-02T08:49:31.014Z,15224
2017-04-02T08:50:31.040Z,11484
2017-04-02T08:51:31.080Z,8448
2017-04-02T08:52:31.122Z,8456
2017-04-02T08:53:31.160Z,8744
2017-04-02T08:54:31.215Z,8500
2017-04-02T08:55:31.234Z,7852
2017-04-02T08:56:31.297Z,7848
2017-04-02T08:57:31.343Z,9060
2017-04-02T08:58:31.380Z,8248
2017-04-02T08:59:31.429Z,7196
2017-04-02T09:00:31.466Z,6076
2017-04-02T09:01:31.517Z,6088
2017-04-02T09:02:31.529Z,6872
2017-04-02T09:03:31.579Z,7696
2017-04-02T09:04:31.630Z,6036
2017-04-02T09:05:31.662Z,9828
2017-04-02T09:06:31.698Z,14500
2017-04-02T09:07:31.750Z,17504
2017-04-02T09:08:31.773Z,16608
2017-04-02T09:09:31.822Z,14944
2017-04-02T09:10:31.861Z,15068
2017-04-02T09:11:31.898Z,14496
2017-04-02T09:12:31.946Z,13200
2017-04-02T09:13:31.985Z,14692
2017-04-02T09:14:32.025Z,16032
2017-04-02T09:15:32.055Z,18848
2017-04-02T09:16:32.098Z,20032
2017-04-02T09:17:32.147Z,19296
2017-04-02T09:18:32.182Z,22464
2017-04-02T09:19:32.225Z,22560
2017-04-02T09:20:32.235Z,22304
2017-04-02T09:21:32.290Z,23040
2017-04-02T09:22:32.343Z,15424
2017-04-02T09:23:32.391Z,11900
2017-04-02T09:24:32.437Z,10272
2017-04-02T09:25:32.462Z,10228
2017-04-02T09:26:32.494Z,11408
2017-04-02T09:27:32.542Z,11308
2017-04-02T09:28:32.592Z,10408
2017-04-02T09:29:32.659Z,10300
2017-04-02T09:30:32.678Z,15296
2017-04-02T09:31:32.712Z,15968
2017-04-02T09:32:32.753Z,12764
2017-04-02T09:33:32.800Z,18592
2017-04-02T09:34:32.838Z,17568
2017-04-02T09:35:32.884Z,22208
2017-04-02T09:36:32.932Z,18720
2017-04-02T09:37:32.936Z,31360
2017-04-02T09:38:32.991Z,38688
2017-04-02T09:39:33.036Z,34592
2017-04-02T09:40:33.130Z,30784
2017-04-02T09:41:33.124Z,23360
2017-04-02T09:42:33.166Z,15424
2017-04-02T09:43:33.206Z,34144
2017-04-02T09:44:33.233Z,22336
2017-04-02T09:45:33.292Z,9420
2017-04-02T09:46:33.342Z,10200
2017-04-02T09:47:33.376Z,21152
2017-04-02T09:48:33.416Z,37536
2017-04-02T09:49:33.450Z,22976
2017-04-02T09:50:33.485Z,36736
2017-04-02T09:51:33.546Z,12348
2017-04-02T09:52:33.584Z,11912
2017-04-02T09:53:33.623Z,9596
2017-04-02T09:54:33.655Z,7492
2017-04-02T09:55:33.708Z,7912
2017-04-02T09:56:33.741Z,7228
2017-04-02T09:57:33.790Z,6540
2017-04-02T09:58:33.831Z,9788
2017-04-02T09:59:33.862Z,9276
2017-04-02T10:00:33.915Z,10192
2017-04-02T10:01:33.956Z,7048
2017-04-02T10:02:33.985Z,9572
2017-04-02T10:03:34.038Z,8804
2017-04-02T10:04:34.075Z,39872
2017-04-02T10:05:34.113Z,40864
2017-04-02T10:06:34.147Z,7148
2017-04-02T10:07:34.196Z,6036
2017-04-02T10:08:34.236Z,6168
2017-04-02T10:09:34.277Z,7732
2017-04-02T10:10:34.318Z,23168
2017-04-02T10:11:34.356Z,63488
2017-04-02T10:12:34.390Z,65600
2017-04-02T10:13:34.439Z,19200
2017-04-02T10:14:34.469Z,65024
2017-04-02T10:15:34.518Z,65760
2017-04-02T10:16:34.554Z,61248
2017-04-02T10:17:34.592Z,52032
2017-04-02T10:18:34.680Z,61344
2017-04-02T10:19:34.708Z,60096
2017-04-02T10:20:34.722Z,60800
2017-04-02T10:21:34.761Z,61856
2017-04-02T10:22:34.808Z,59456
2017-04-02T10:23:34.840Z,61312
2017-04-02T10:24:34.871Z,64192
2017-04-02T10:25:34.917Z,66944
2017-04-02T10:26:34.968Z,68448
2017-04-02T10:27:34.987Z,71072
2017-04-02T10:28:35.043Z,69888
2017-04-02T10:29:35.088Z,69152
2017-04-02T10:30:35.113Z,65056
2017-04-02T10:31:35.172Z,14640
2017-04-02T10:32:35.212Z,12652
2017-04-02T10:33:35.253Z,16288
2017-04-02T10:34:35.299Z,13124
2017-04-02T10:35:35.336Z,10820
2017-04-02T10:36:35.366Z,9944
2017-04-02T10:37:35.428Z,8716
2017-04-02T10:38:35.438Z,65312
2017-04-02T10:39:35.541Z,63040
2017-04-02T10:40:35.542Z,62496
2017-04-02T10:41:35.576Z,59936
2017-04-02T10:42:35.617Z,41760
2017-04-02T10:43:35.667Z,62048
2017-04-02T10:44:35.704Z,8784
2017-04-02T10:45:35.740Z,7564
2017-04-02T10:46:35.783Z,6572
2017-04-02T10:47:35.812Z,5516
2017-04-02T10:48:35.856Z,4904
2017-04-02T10:49:35.910Z,4804
2017-04-02T10:50:35.953Z,4568
2017-04-02T10:51:35.981Z,5288
2017-04-02T10:52:36.022Z,9992
2017-04-02T10:53:36.062Z,9076
2017-04-02T10:54:36.084Z,9484
2017-04-02T10:55:36.146Z,10196
2017-04-02T10:56:36.189Z,11736
2017-04-02T10:57:36.222Z,13256
2017-04-02T10:58:36.259Z,13888
2017-04-02T10:59:36.295Z,14096
2017-04-02T11:00:36.346Z,13984
2017-04-02T11:01:36.382Z,13216
2017-04-02T11:02:36.415Z,13704
2017-04-02T11:03:36.438Z,12652
2017-04-02T11:04:36.490Z,10868
2017-04-02T11:05:36.536Z,9864
2017-04-02T11:06:36.607Z,7600
2017-04-02T11:07:36.613Z,6920
2017-04-02T11:08:36.654Z,6060
2017-04-02T11:09:36.690Z,5256
2017-04-02T11:10:36.732Z,5356
2017-04-02T11:11:36.784Z,6280
2017-04-02T11:12:36.812Z,7140
2017-04-02T11:13:36.847Z,7576
2017-04-02T11:14:36.889Z,8268
2017-04-02T11:15:36.936Z,10008
2017-04-02T11:16:36.971Z,10052
2017-04-02T11:17:37.010Z,10008
2017-04-02T11:18:37.051Z,10040
2017-04-02T11:19:37.090Z,10200
2017-04-02T11:20:37.126Z,10300
2017-04-02T11:21:37.174Z,10460
2017-04-02T11:22:37.185Z,10500
2017-04-02T11:23:37.235Z,9832
2017-04-02T11:24:37.277Z,10484
2017-04-02T11:25:37.322Z,11364
2017-04-02T11:26:37.354Z,9932
2017-04-02T11:27:37.382Z,9900
2017-04-02T11:28:37.433Z,9584
2017-04-02T11:29:37.472Z,8112
2017-04-02T11:30:37.516Z,7876
2017-04-02T11:31:37.555Z,7440
2017-04-02T11:32:37.592Z,6604
2017-04-02T11:33:37.630Z,6444
2017-04-02T11:34:37.672Z,6292
2017-04-02T11:35:37.715Z,7148
2017-04-02T11:36:37.746Z,7064
2017-04-02T11:37:37.787Z,7084
2017-04-02T11:38:37.833Z,7008
2017-04-02T11:39:37.872Z,6884
2017-04-02T11:40:37.902Z,6876
2017-04-02T11:41:37.928Z,6772
2017-04-02T11:42:37.982Z,6536
2017-04-02T11:43:38.019Z,6872
2017-04-02T11:44:38.059Z,7252
2017-04-02T11:45:38.096Z,7640
2017-04-02T11:46:38.123Z,8252
2017-04-02T11:47:38.174Z,8112
2017-04-02T11:48:38.201Z,7932
2017-04-02T11:49:38.265Z,6868
2017-04-02T11:50:38.279Z,6240
2017-04-02T11:51:38.325Z,5568
2017-04-02T11:52:38.352Z,6316
2017-04-02T11:53:38.383Z,6452
2017-04-02T11:54:38.429Z,6028
2017-04-02T11:55:38.478Z,5788
2017-04-02T11:56:38.518Z,5852
2017-04-02T11:57:38.543Z,6216
2017-04-02T11:58:38.597Z,6252
2017-04-02T11:59:38.629Z,5372
2017-04-02T12:00:38.672Z,5904
2017-04-02T12:01:38.693Z,6172
2017-04-02T12:02:38.728Z,5872
2017-04-02T12:03:38.775Z,6004
2017-04-02T12:04:38.821Z,6032
2017-04-02T12:05:38.852Z,7212
2017-04-02T12:06:38.895Z,7132
2017-04-02T12:07:38.919Z,6728
2017-04-02T12:08:38.966Z,6200
2017-04-02T12:09:39.002Z,5900
2017-04-02T12:10:39.047Z,5980
2017-04-02T12:11:39.084Z,6124
2017-04-02T12:12:39.155Z,5568
2017-04-02T12:13:39.164Z,4976
2017-04-02T12:14:39.198Z,4508
2017-04-02T12:15:39.220Z,5048
2017-04-02T12:16:39.273Z,5284
2017-04-02T12:17:39.295Z,4920
2017-04-02T12:18:39.359Z,4784
2017-04-02T12:19:39.390Z,4552
2017-04-02T12:20:39.423Z,4404
2017-04-02T12:21:39.462Z,4456
2017-04-02T12:22:39.482Z,5028
2017-04-02T12:23:39.526Z,5204
2017-04-02T12:24:39.568Z,5364
2017-04-02T12:25:39.598Z,5368
2017-04-02T12:26:39.643Z,5332
2017-04-02T12:27:39.684Z,5204
2017-04-02T12:28:39.709Z,5104
2017-04-02T12:29:39.749Z,4984
2017-04-02T12:30:39.800Z,4844
2017-04-02T12:31:39.836Z,4756
2017-04-02T12:32:39.864Z,4796
2017-04-02T12:33:39.928Z,4884
2017-04-02T12:34:39.931Z,4948
2017-04-02T12:35:39.979Z,4968
2017-04-02T12:36:40.012Z,4888
2017-04-02T12:37:40.052Z,4820
2017-04-02T12:38:40.075Z,5156
2017-04-02T12:39:40.135Z,4960
2017-04-02T12:40:40.169Z,4832
2017-04-02T12:41:40.187Z,4676
2017-04-02T12:42:40.233Z,4624
2017-04-02T12:43:40.280Z,4568
2017-04-02T12:44:40.310Z,4508
2017-04-02T12:45:40.336Z,4504
2017-04-02T12:46:40.420Z,4556
2017-04-02T12:47:40.420Z,4560
2017-04-02T12:48:40.466Z,4516
2017-04-02T12:49:40.486Z,4604
2017-04-02T12:50:40.536Z,4896
2017-04-02T12:51:40.593Z,5136
2017-04-02T12:52:40.608Z,5104
2017-04-02T12:53:40.635Z,4788
2017-04-02T12:54:40.676Z,4652
2017-04-02T12:55:40.714Z,4612
2017-04-02T12:56:40.752Z,4580
2017-04-02T12:57:40.791Z,4932
2017-04-02T12:58:40.834Z,5312
2017-04-02T12:59:40.905Z,5496
2017-04-02T13:00:40.889Z,5096
2017-04-02T13:01:40.934Z,4904
2017-04-02T13:02:40.972Z,4728
2017-04-02T13:03:41.049Z,4620
2017-04-02T13:04:41.108Z,4820
2017-04-02T13:05:41.118Z,4672
2017-04-02T13:06:41.092Z,4360
2017-04-02T13:07:41.143Z,4580
2017-04-02T13:08:41.226Z,4868
2017-04-02T13:09:41.278Z,5280
2017-04-02T13:10:41.279Z,5240
2017-04-02T13:11:41.296Z,4812
2017-04-02T13:12:41.341Z,4592
2017-04-02T13:13:41.382Z,4380
2017-04-02T13:14:41.422Z,4344
2017-04-02T13:15:41.453Z,4440
2017-04-02T13:16:41.493Z,4256
2017-04-02T13:17:41.530Z,4328
2017-04-02T13:18:41.552Z,4444
2017-04-02T13:19:41.602Z,4452
2017-04-02T13:20:41.636Z,4644
2017-04-02T13:21:41.706Z,5220
2017-04-02T13:22:41.704Z,4968
2017-04-02T13:23:41.750Z,5036
2017-04-02T13:24:41.784Z,5284
2017-04-02T13:25:41.823Z,5864
2017-04-02T13:26:41.851Z,5792
2017-04-02T13:27:41.890Z,5612
2017-04-02T13:28:41.913Z,5264
2017-04-02T13:29:41.955Z,5024
2017-04-02T13:30:42.007Z,4988
2017-04-02T13:31:42.050Z,5256
2017-04-02T13:32:42.065Z,5208
2017-04-02T13:33:42.116Z,5028
2017-04-02T13:34:42.160Z,5076
2017-04-02T13:35:42.195Z,5156
2017-04-02T13:36:42.218Z,5492
2017-04-02T13:37:42.261Z,5692
2017-04-02T13:38:42.299Z,5804
2017-04-02T13:39:42.309Z,5744
2017-04-02T13:40:42.376Z,5688
2017-04-02T13:41:42.424Z,5844